メインページ
METAR-TAF:

METAR-TAF

空港 :

マタベリ国際空港

イースター島, チリ

緯度: 27-09S, 経度: 109-25W, 海抜: 51m

現時点の気象観測

当レポートは1時間2分前の12:00(UTC)に作成
南東の風 10kt
気温 20°C
湿度 73%
気圧 1020 hPa
視程10km以上
高度2500ftの雲は散在している

METAR: SCIP 101200Z 14010KT 9999 SCT025 20/15 Q1020 NOSIG

時間: 08:02 (13:02 UTC)

予報

当レポートは2時間55分前の10:07(UTC)に作成
予報は10日の 12時(UTC)から 11日の 12時(UTC)まで有効
南東の風 10kt
視程10km以上
高度2000ftの雲は散在している
10日の 13時(UTC)から 10日の 16時(UTC)まで一時的に
の風 10kt
視程: 8000m
高度2000ftの千切れ雲あり
弱いにわか雨
10日の 17時(UTC)から 10日の 19時(UTC)まで徐々に
の風 10kt
高度2000ftの雲は散在している
高度25000ftの千切れ雲あり
10日の 22時(UTC)から 11日の 00時(UTC)まで一時的に
東/北東の風 10kt
視程: 7000m
高度2000ftの雲は散在している
高度3000ftの千切れ雲あり
弱いにわか雨
11日の 04時(UTC)から 11日の 06時(UTC)まで徐々に
東/北東の風 10kt
高度2000ftの雲は散在している
11日の 09時(UTC)から 11日の 12時(UTC)まで一時的に
視程: 6000m
高度1800ftの千切れ雲あり
弱いにわか雨

TAF: SCIP 101007Z 1012/1112 13010KT 9999 SCT020 TX26/1020Z TN18/1110Z TEMPO 1013/1016 10010KT 8000 -SHRA BKN020 BECMG 1017/1019 10010KT SCT020 BKN250 TEMPO 1022/1100 07010KT 7000 -SHRA SCT020 BKN030 BECMG 1104/1106 07010KT SCT020 TEMPO 1109/1112 6000 -SHRA BKN018

4,000以上の空港の気象観測と天気予報(METAR報とTAF報)

利用可能な観測所は地図上に黄色い丸と赤い丸で示す。

丸の上にカーソルを重ねると観測所名を参照できる。

次にクリックすると気象観測と天気予報を参照できる。

マップの切り替え:黒色「×」印の緑ボタンをクリックして拡大、「-」印の緑ボタンをクリックして縮小、緑色の三角印をクリックして隣りの地図に切り替え


METAR-TAF: